sensor_id;sensor_type;location;lat;lon;timestamp;P1;durP1;ratioP1;P2;durP2;ratioP2
77733;SDS011;66902;41.720;44.796;2023-12-29T00:01:54;3.60;;;1.20;;
77733;SDS011;66902;41.720;44.796;2023-12-29T00:04:29;3.60;;;0.80;;
77733;SDS011;66902;41.720;44.796;2023-12-29T00:07:03;3.00;;;1.00;;
77733;SDS011;66902;41.720;44.796;2023-12-29T00:09:36;4.10;;;1.10;;
77733;SDS011;66902;41.720;44.796;2023-12-29T00:12:11;2.80;;;1.20;;
77733;SDS011;66902;41.720;44.796;2023-12-29T00:14:45;2.80;;;0.80;;
77733;SDS011;66902;41.720;44.796;2023-12-29T00:17:19;1.50;;;0.80;;
77733;SDS011;66902;41.720;44.796;2023-12-29T00:19:53;3.20;;;0.80;;
77733;SDS011;66902;41.720;44.796;2023-12-29T00:22:26;7.60;;;1.20;;
77733;SDS011;66902;41.720;44.796;2023-12-29T00:25:04;5.50;;;1.00;;
77733;SDS011;66902;41.720;44.796;2023-12-29T00:27:39;1.20;;;0.70;;
77733;SDS011;66902;41.720;44.796;2023-12-29T00:30:13;5.10;;;0.80;;
77733;SDS011;66902;41.720;44.796;2023-12-29T00:32:51;2.90;;;0.80;;
77733;SDS011;66902;41.720;44.796;2023-12-29T00:35:25;3.90;;;1.00;;
77733;SDS011;66902;41.720;44.796;2023-12-29T00:37:58;5.30;;;1.00;;
77733;SDS011;66902;41.720;44.796;2023-12-29T00:40:32;3.70;;;0.90;;
77733;SDS011;66902;41.720;44.796;2023-12-29T00:43:05;2.80;;;0.80;;
77733;SDS011;66902;41.720;44.796;2023-12-29T00:45:39;3.60;;;0.80;;
77733;SDS011;66902;41.720;44.796;2023-12-29T00:48:14;0.70;;;0.50;;
77733;SDS011;66902;41.720;44.796;2023-12-29T00:50:48;2.20;;;0.70;;
77733;SDS011;66902;41.720;44.796;2023-12-29T00:53:22;4.20;;;1.10;;
77733;SDS011;66902;41.720;44.796;2023-12-29T00:55:56;1.90;;;0.80;;
77733;SDS011;66902;41.720;44.796;2023-12-29T00:58:30;2.80;;;0.90;;
77733;SDS011;66902;41.720;44.796;2023-12-29T01:01:04;2.90;;;1.60;;
77733;SDS011;66902;41.720;44.796;2023-12-29T01:03:42;4.70;;;1.30;;
77733;SDS011;66902;41.720;44.796;2023-12-29T01:06:17;4.30;;;1.20;;
77733;SDS011;66902;41.720;44.796;2023-12-29T01:08:51;2.40;;;1.20;;
77733;SDS011;66902;41.720;44.796;2023-12-29T01:11:25;2.50;;;0.80;;
77733;SDS011;66902;41.720;44.796;2023-12-29T01:13:59;1.20;;;0.60;;
77733;SDS011;66902;41.720;44.796;2023-12-29T01:16:32;5.00;;;1.20;;
77733;SDS011;66902;41.720;44.796;2023-12-29T01:19:06;1.20;;;0.50;;
77733;SDS011;66902;41.720;44.796;2023-12-29T01:21:40;3.80;;;0.80;;
77733;SDS011;66902;41.720;44.796;2023-12-29T01:24:14;5.40;;;1.20;;
77733;SDS011;66902;41.720;44.796;2023-12-29T01:26:55;4.30;;;0.90;;
77733;SDS011;66902;41.720;44.796;2023-12-29T01:29:29;2.50;;;0.70;;
77733;SDS011;66902;41.720;44.796;2023-12-29T01:32:03;4.10;;;1.20;;
77733;SDS011;66902;41.720;44.796;2023-12-29T01:34:38;5.70;;;0.80;;
77733;SDS011;66902;41.720;44.796;2023-12-29T01:37:12;3.20;;;0.90;;
77733;SDS011;66902;41.720;44.796;2023-12-29T01:39:46;1.60;;;0.70;;
77733;SDS011;66902;41.720;44.796;2023-12-29T01:42:20;2.00;;;1.00;;
77733;SDS011;66902;41.720;44.796;2023-12-29T01:44:53;7.40;;;1.70;;
77733;SDS011;66902;41.720;44.796;2023-12-29T01:47:27;5.50;;;1.20;;
77733;SDS011;66902;41.720;44.796;2023-12-29T01:50:01;2.40;;;1.10;;
77733;SDS011;66902;41.720;44.796;2023-12-29T01:52:35;1.40;;;1.00;;
77733;SDS011;66902;41.720;44.796;2023-12-29T01:55:09;2.40;;;1.00;;
77733;SDS011;66902;41.720;44.796;2023-12-29T01:57:44;3.00;;;1.70;;
77733;SDS011;66902;41.720;44.796;2023-12-29T02:00:19;3.40;;;1.10;;
77733;SDS011;66902;41.720;44.796;2023-12-29T02:02:52;7.10;;;1.30;;
77733;SDS011;66902;41.720;44.796;2023-12-29T02:05:27;8.80;;;1.30;;
77733;SDS011;66902;41.720;44.796;2023-12-29T02:08:03;3.90;;;1.50;;
77733;SDS011;66902;41.720;44.796;2023-12-29T02:10:38;2.90;;;1.20;;
77733;SDS011;66902;41.720;44.796;2023-12-29T02:13:13;2.90;;;1.10;;
77733;SDS011;66902;41.720;44.796;2023-12-29T02:15:46;2.40;;;1.10;;
77733;SDS011;66902;41.720;44.796;2023-12-29T02:18:20;5.50;;;1.60;;
77733;SDS011;66902;41.720;44.796;2023-12-29T02:20:55;2.20;;;1.50;;
77733;SDS011;66902;41.720;44.796;2023-12-29T02:23:29;3.10;;;1.10;;
77733;SDS011;66902;41.720;44.796;2023-12-29T02:26:05;4.00;;;1.60;;
77733;SDS011;66902;41.720;44.796;2023-12-29T02:28:43;2.50;;;1.60;;
77733;SDS011;66902;41.720;44.796;2023-12-29T02:31:19;11.40;;;2.00;;
77733;SDS011;66902;41.720;44.796;2023-12-29T02:36:27;4.90;;;1.20;;
77733;SDS011;66902;41.720;44.796;2023-12-29T02:39:02;2.70;;;1.30;;
77733;SDS011;66902;41.720;44.796;2023-12-29T02:41:36;3.60;;;1.30;;
77733;SDS011;66902;41.720;44.796;2023-12-29T02:44:10;3.80;;;1.10;;
77733;SDS011;66902;41.720;44.796;2023-12-29T02:46:43;4.20;;;1.80;;
77733;SDS011;66902;41.720;44.796;2023-12-29T02:49:17;7.80;;;4.70;;
77733;SDS011;66902;41.720;44.796;2023-12-29T02:51:52;6.10;;;3.20;;
77733;SDS011;66902;41.720;44.796;2023-12-29T02:54:26;6.50;;;3.10;;
77733;SDS011;66902;41.720;44.796;2023-12-29T02:56:59;16.80;;;3.20;;
77733;SDS011;66902;41.720;44.796;2023-12-29T02:59:33;6.00;;;1.90;;
77733;SDS011;66902;41.720;44.796;2023-12-29T03:02:07;12.20;;;2.60;;
77733;SDS011;66902;41.720;44.796;2023-12-29T03:04:41;15.80;;;3.20;;
77733;SDS011;66902;41.720;44.796;2023-12-29T03:07:14;5.80;;;2.60;;
77733;SDS011;66902;41.720;44.796;2023-12-29T03:09:48;4.60;;;2.00;;
77733;SDS011;66902;41.720;44.796;2023-12-29T03:12:22;4.00;;;1.70;;
77733;SDS011;66902;41.720;44.796;2023-12-29T03:14:55;6.10;;;2.20;;
77733;SDS011;66902;41.720;44.796;2023-12-29T03:17:29;6.40;;;2.50;;
77733;SDS011;66902;41.720;44.796;2023-12-29T03:20:02;7.10;;;2.00;;
77733;SDS011;66902;41.720;44.796;2023-12-29T03:22:38;4.00;;;2.00;;
77733;SDS011;66902;41.720;44.796;2023-12-29T03:25:12;6.60;;;3.10;;
77733;SDS011;66902;41.720;44.796;2023-12-29T03:27:46;14.60;;;3.10;;
77733;SDS011;66902;41.720;44.796;2023-12-29T03:30:19;5.90;;;2.70;;
77733;SDS011;66902;41.720;44.796;2023-12-29T03:32:53;3.90;;;1.70;;
77733;SDS011;66902;41.720;44.796;2023-12-29T03:35:27;6.10;;;1.60;;
77733;SDS011;66902;41.720;44.796;2023-12-29T03:38:01;5.50;;;1.40;;
77733;SDS011;66902;41.720;44.796;2023-12-29T03:40:34;6.30;;;2.00;;
77733;SDS011;66902;41.720;44.796;2023-12-29T03:43:08;6.00;;;1.80;;
77733;SDS011;66902;41.720;44.796;2023-12-29T03:45:41;9.40;;;2.00;;
77733;SDS011;66902;41.720;44.796;2023-12-29T03:48:15;10.00;;;1.60;;
77733;SDS011;66902;41.720;44.796;2023-12-29T03:50:49;3.20;;;1.20;;
77733;SDS011;66902;41.720;44.796;2023-12-29T03:53:23;3.70;;;1.20;;
77733;SDS011;66902;41.720;44.796;2023-12-29T03:55:57;2.50;;;1.20;;
77733;SDS011;66902;41.720;44.796;2023-12-29T03:58:34;16.90;;;3.90;;
77733;SDS011;66902;41.720;44.796;2023-12-29T04:01:10;10.20;;;3.50;;
77733;SDS011;66902;41.720;44.796;2023-12-29T04:03:45;7.90;;;3.50;;
77733;SDS011;66902;41.720;44.796;2023-12-29T04:06:19;6.30;;;2.50;;
77733;SDS011;66902;41.720;44.796;2023-12-29T04:08:52;5.80;;;2.00;;
77733;SDS011;66902;41.720;44.796;2023-12-29T04:11:27;8.50;;;2.80;;
77733;SDS011;66902;41.720;44.796;2023-12-29T04:14:00;6.80;;;2.90;;
77733;SDS011;66902;41.720;44.796;2023-12-29T04:16:34;6.40;;;1.90;;
77733;SDS011;66902;41.720;44.796;2023-12-29T04:19:10;4.20;;;1.80;;
77733;SDS011;66902;41.720;44.796;2023-12-29T04:21:45;8.40;;;2.60;;
77733;SDS011;66902;41.720;44.796;2023-12-29T04:24:19;4.70;;;2.60;;
77733;SDS011;66902;41.720;44.796;2023-12-29T04:26:54;4.60;;;2.30;;
77733;SDS011;66902;41.720;44.796;2023-12-29T04:29:27;9.40;;;2.70;;
77733;SDS011;66902;41.720;44.796;2023-12-29T04:32:01;6.40;;;3.00;;
77733;SDS011;66902;41.720;44.796;2023-12-29T04:34:34;7.90;;;2.90;;
77733;SDS011;66902;41.720;44.796;2023-12-29T04:37:09;7.10;;;2.10;;
77733;SDS011;66902;41.720;44.796;2023-12-29T04:39:44;6.90;;;3.10;;
77733;SDS011;66902;41.720;44.796;2023-12-29T04:42:17;7.60;;;4.80;;
77733;SDS011;66902;41.720;44.796;2023-12-29T04:44:51;8.30;;;5.40;;
77733;SDS011;66902;41.720;44.796;2023-12-29T04:47:25;5.20;;;2.20;;
77733;SDS011;66902;41.720;44.796;2023-12-29T04:49:59;11.40;;;3.20;;
77733;SDS011;66902;41.720;44.796;2023-12-29T04:52:33;11.50;;;3.20;;
77733;SDS011;66902;41.720;44.796;2023-12-29T04:55:08;8.50;;;2.40;;
77733;SDS011;66902;41.720;44.796;2023-12-29T04:57:43;8.70;;;4.20;;
77733;SDS011;66902;41.720;44.796;2023-12-29T05:00:17;6.60;;;3.30;;
77733;SDS011;66902;41.720;44.796;2023-12-29T05:02:50;9.00;;;3.00;;
77733;SDS011;66902;41.720;44.796;2023-12-29T05:05:24;4.10;;;2.20;;
77733;SDS011;66902;41.720;44.796;2023-12-29T05:07:59;4.10;;;2.50;;
77733;SDS011;66902;41.720;44.796;2023-12-29T05:10:33;5.90;;;2.70;;
77733;SDS011;66902;41.720;44.796;2023-12-29T05:13:06;7.20;;;2.60;;
77733;SDS011;66902;41.720;44.796;2023-12-29T05:15:40;7.60;;;3.10;;
77733;SDS011;66902;41.720;44.796;2023-12-29T05:18:13;8.60;;;3.60;;
77733;SDS011;66902;41.720;44.796;2023-12-29T05:20:47;3.30;;;2.40;;
77733;SDS011;66902;41.720;44.796;2023-12-29T05:23:22;6.20;;;3.30;;
77733;SDS011;66902;41.720;44.796;2023-12-29T05:25:56;15.50;;;3.20;;
77733;SDS011;66902;41.720;44.796;2023-12-29T05:28:30;6.90;;;3.20;;
77733;SDS011;66902;41.720;44.796;2023-12-29T05:31:03;24.50;;;3.30;;
77733;SDS011;66902;41.720;44.796;2023-12-29T05:33:37;9.20;;;3.20;;
77733;SDS011;66902;41.720;44.796;2023-12-29T05:36:11;10.90;;;2.50;;
77733;SDS011;66902;41.720;44.796;2023-12-29T05:38:46;7.20;;;2.90;;
77733;SDS011;66902;41.720;44.796;2023-12-29T05:41:20;7.00;;;2.70;;
77733;SDS011;66902;41.720;44.796;2023-12-29T05:43:54;6.50;;;3.10;;
77733;SDS011;66902;41.720;44.796;2023-12-29T05:46:28;9.80;;;4.00;;
77733;SDS011;66902;41.720;44.796;2023-12-29T05:49:01;6.30;;;2.80;;
77733;SDS011;66902;41.720;44.796;2023-12-29T05:51:35;7.10;;;2.80;;
77733;SDS011;66902;41.720;44.796;2023-12-29T05:54:09;6.10;;;2.60;;
77733;SDS011;66902;41.720;44.796;2023-12-29T05:56:43;5.00;;;2.70;;
77733;SDS011;66902;41.720;44.796;2023-12-29T05:59:17;11.90;;;3.30;;
77733;SDS011;66902;41.720;44.796;2023-12-29T06:01:50;9.70;;;5.50;;
77733;SDS011;66902;41.720;44.796;2023-12-29T06:04:25;8.20;;;4.60;;
77733;SDS011;66902;41.720;44.796;2023-12-29T06:06:58;10.00;;;3.90;;
77733;SDS011;66902;41.720;44.796;2023-12-29T06:09:32;8.50;;;4.80;;
77733;SDS011;66902;41.720;44.796;2023-12-29T06:12:06;7.40;;;3.80;;
77733;SDS011;66902;41.720;44.796;2023-12-29T06:14:40;8.30;;;4.50;;
77733;SDS011;66902;41.720;44.796;2023-12-29T06:17:14;7.80;;;4.00;;
77733;SDS011;66902;41.720;44.796;2023-12-29T06:19:48;8.30;;;4.10;;
77733;SDS011;66902;41.720;44.796;2023-12-29T06:22:21;11.10;;;4.00;;
77733;SDS011;66902;41.720;44.796;2023-12-29T06:24:55;5.30;;;2.70;;
77733;SDS011;66902;41.720;44.796;2023-12-29T06:27:29;7.70;;;3.60;;
77733;SDS011;66902;41.720;44.796;2023-12-29T06:30:08;6.30;;;3.90;;
77733;SDS011;66902;41.720;44.796;2023-12-29T06:32:42;11.30;;;3.20;;
77733;SDS011;66902;41.720;44.796;2023-12-29T06:35:16;6.10;;;4.30;;
77733;SDS011;66902;41.720;44.796;2023-12-29T06:37:50;7.10;;;3.00;;
77733;SDS011;66902;41.720;44.796;2023-12-29T06:40:23;13.60;;;3.90;;
77733;SDS011;66902;41.720;44.796;2023-12-29T06:42:57;6.40;;;4.20;;
77733;SDS011;66902;41.720;44.796;2023-12-29T06:45:31;6.20;;;2.70;;
77733;SDS011;66902;41.720;44.796;2023-12-29T06:48:06;4.60;;;2.40;;
77733;SDS011;66902;41.720;44.796;2023-12-29T06:50:39;5.60;;;2.70;;
77733;SDS011;66902;41.720;44.796;2023-12-29T06:53:13;5.00;;;2.60;;
77733;SDS011;66902;41.720;44.796;2023-12-29T06:55:47;5.70;;;2.70;;
77733;SDS011;66902;41.720;44.796;2023-12-29T06:58:21;5.30;;;1.80;;
77733;SDS011;66902;41.720;44.796;2023-12-29T07:00:54;6.90;;;1.80;;
77733;SDS011;66902;41.720;44.796;2023-12-29T07:03:29;10.40;;;2.70;;
77733;SDS011;66902;41.720;44.796;2023-12-29T07:06:03;5.70;;;2.30;;
77733;SDS011;66902;41.720;44.796;2023-12-29T07:08:38;5.50;;;1.40;;
77733;SDS011;66902;41.720;44.796;2023-12-29T07:11:11;5.40;;;1.90;;
77733;SDS011;66902;41.720;44.796;2023-12-29T07:13:45;12.70;;;3.30;;
77733;SDS011;66902;41.720;44.796;2023-12-29T07:16:19;7.30;;;3.90;;
77733;SDS011;66902;41.720;44.796;2023-12-29T07:18:53;4.20;;;1.60;;
77733;SDS011;66902;41.720;44.796;2023-12-29T07:21:27;6.60;;;2.00;;
77733;SDS011;66902;41.720;44.796;2023-12-29T07:26:33;6.10;;;1.90;;
77733;SDS011;66902;41.720;44.796;2023-12-29T07:29:07;5.60;;;2.20;;
77733;SDS011;66902;41.720;44.796;2023-12-29T07:34:13;5.90;;;3.40;;
77733;SDS011;66902;41.720;44.796;2023-12-29T07:36:47;3.90;;;1.90;;
77733;SDS011;66902;41.720;44.796;2023-12-29T07:41:53;2.40;;;1.20;;
77733;SDS011;66902;41.720;44.796;2023-12-29T07:47:00;3.00;;;2.00;;
77733;SDS011;66902;41.720;44.796;2023-12-29T07:49:34;7.10;;;1.90;;
77733;SDS011;66902;41.720;44.796;2023-12-29T07:52:08;5.10;;;2.10;;
77733;SDS011;66902;41.720;44.796;2023-12-29T07:54:45;5.50;;;1.90;;
77733;SDS011;66902;41.720;44.796;2023-12-29T07:57:19;7.30;;;2.00;;
77733;SDS011;66902;41.720;44.796;2023-12-29T07:59:52;6.30;;;2.30;;
77733;SDS011;66902;41.720;44.796;2023-12-29T08:02:27;7.40;;;2.20;;
77733;SDS011;66902;41.720;44.796;2023-12-29T08:05:01;6.40;;;2.00;;
77733;SDS011;66902;41.720;44.796;2023-12-29T08:07:36;5.40;;;2.00;;
77733;SDS011;66902;41.720;44.796;2023-12-29T08:10:10;7.40;;;2.20;;
77733;SDS011;66902;41.720;44.796;2023-12-29T08:12:44;3.80;;;2.10;;
77733;SDS011;66902;41.720;44.796;2023-12-29T08:15:18;5.30;;;2.50;;
77733;SDS011;66902;41.720;44.796;2023-12-29T08:17:52;3.40;;;2.10;;
77733;SDS011;66902;41.720;44.796;2023-12-29T08:20:27;6.40;;;2.20;;
77733;SDS011;66902;41.720;44.796;2023-12-29T08:23:01;7.40;;;3.20;;
77733;SDS011;66902;41.720;44.796;2023-12-29T08:25:35;10.70;;;2.90;;
77733;SDS011;66902;41.720;44.796;2023-12-29T08:28:09;6.80;;;3.10;;
77733;SDS011;66902;41.720;44.796;2023-12-29T08:30:42;9.60;;;2.60;;
77733;SDS011;66902;41.720;44.796;2023-12-29T08:33:17;14.80;;;3.50;;
77733;SDS011;66902;41.720;44.796;2023-12-29T08:35:50;4.70;;;3.30;;
77733;SDS011;66902;41.720;44.796;2023-12-29T08:38:29;5.80;;;3.60;;
77733;SDS011;66902;41.720;44.796;2023-12-29T08:41:03;6.70;;;1.80;;
77733;SDS011;66902;41.720;44.796;2023-12-29T08:43:37;4.70;;;2.40;;
77733;SDS011;66902;41.720;44.796;2023-12-29T08:46:11;4.00;;;2.10;;
77733;SDS011;66902;41.720;44.796;2023-12-29T08:48:50;6.70;;;2.30;;
77733;SDS011;66902;41.720;44.796;2023-12-29T08:51:24;4.40;;;2.50;;
77733;SDS011;66902;41.720;44.796;2023-12-29T08:53:58;4.60;;;2.30;;
77733;SDS011;66902;41.720;44.796;2023-12-29T08:56:32;5.50;;;3.50;;
77733;SDS011;66902;41.720;44.796;2023-12-29T08:59:07;6.10;;;2.30;;
77733;SDS011;66902;41.720;44.796;2023-12-29T09:01:41;8.00;;;2.70;;
77733;SDS011;66902;41.720;44.796;2023-12-29T09:04:17;5.00;;;3.10;;
77733;SDS011;66902;41.720;44.796;2023-12-29T09:06:51;17.10;;;3.70;;
77733;SDS011;66902;41.720;44.796;2023-12-29T09:09:32;5.60;;;3.00;;
77733;SDS011;66902;41.720;44.796;2023-12-29T09:12:06;4.40;;;2.80;;
77733;SDS011;66902;41.720;44.796;2023-12-29T09:14:40;8.10;;;4.40;;
77733;SDS011;66902;41.720;44.796;2023-12-29T09:17:14;4.30;;;3.20;;
77733;SDS011;66902;41.720;44.796;2023-12-29T09:19:48;5.90;;;2.70;;
77733;SDS011;66902;41.720;44.796;2023-12-29T09:22:38;7.90;;;4.30;;
77733;SDS011;66902;41.720;44.796;2023-12-29T09:25:12;6.40;;;3.50;;
77733;SDS011;66902;41.720;44.796;2023-12-29T09:27:46;5.90;;;4.30;;
77733;SDS011;66902;41.720;44.796;2023-12-29T09:30:23;4.50;;;3.50;;
77733;SDS011;66902;41.720;44.796;2023-12-29T09:32:57;5.70;;;3.20;;
77733;SDS011;66902;41.720;44.796;2023-12-29T09:35:31;4.80;;;3.10;;
77733;SDS011;66902;41.720;44.796;2023-12-29T09:38:07;6.30;;;3.90;;
77733;SDS011;66902;41.720;44.796;2023-12-29T09:40:41;4.80;;;3.60;;
77733;SDS011;66902;41.720;44.796;2023-12-29T09:43:15;5.50;;;3.00;;
77733;SDS011;66902;41.720;44.796;2023-12-29T09:45:49;9.10;;;3.20;;
77733;SDS011;66902;41.720;44.796;2023-12-29T09:48:25;6.50;;;3.60;;
77733;SDS011;66902;41.720;44.796;2023-12-29T09:51:00;5.50;;;2.60;;
77733;SDS011;66902;41.720;44.796;2023-12-29T09:53:34;11.80;;;2.90;;
77733;SDS011;66902;41.720;44.796;2023-12-29T09:56:09;5.10;;;2.70;;
77733;SDS011;66902;41.720;44.796;2023-12-29T09:58:44;8.20;;;3.70;;
77733;SDS011;66902;41.720;44.796;2023-12-29T10:03:54;6.50;;;3.70;;
77733;SDS011;66902;41.720;44.796;2023-12-29T10:06:34;5.50;;;3.50;;
77733;SDS011;66902;41.720;44.796;2023-12-29T10:09:17;3.90;;;2.90;;
77733;SDS011;66902;41.720;44.796;2023-12-29T10:11:57;9.20;;;5.20;;
77733;SDS011;66902;41.720;44.796;2023-12-29T10:14:35;11.50;;;5.00;;
77733;SDS011;66902;41.720;44.796;2023-12-29T10:17:19;6.20;;;4.50;;
77733;SDS011;66902;41.720;44.796;2023-12-29T10:20:04;6.30;;;3.80;;
77733;SDS011;66902;41.720;44.796;2023-12-29T10:22:45;3.80;;;3.20;;
77733;SDS011;66902;41.720;44.796;2023-12-29T10:25:25;9.70;;;3.30;;
77733;SDS011;66902;41.720;44.796;2023-12-29T10:28:00;7.40;;;4.10;;
77733;SDS011;66902;41.720;44.796;2023-12-29T10:30:34;3.40;;;2.30;;
77733;SDS011;66902;41.720;44.796;2023-12-29T10:33:11;7.00;;;3.20;;
77733;SDS011;66902;41.720;44.796;2023-12-29T10:36:01;7.10;;;3.00;;
77733;SDS011;66902;41.720;44.796;2023-12-29T10:38:41;5.80;;;3.20;;
77733;SDS011;66902;41.720;44.796;2023-12-29T10:41:22;5.30;;;3.00;;
77733;SDS011;66902;41.720;44.796;2023-12-29T10:44:09;3.80;;;2.60;;
77733;SDS011;66902;41.720;44.796;2023-12-29T10:46:44;9.40;;;3.70;;
77733;SDS011;66902;41.720;44.796;2023-12-29T10:49:21;8.60;;;3.90;;
77733;SDS011;66902;41.720;44.796;2023-12-29T10:51:56;6.10;;;3.20;;
77733;SDS011;66902;41.720;44.796;2023-12-29T10:54:31;4.00;;;2.70;;
77733;SDS011;66902;41.720;44.796;2023-12-29T10:57:09;6.60;;;2.70;;
77733;SDS011;66902;41.720;44.796;2023-12-29T10:59:44;4.40;;;3.20;;
77733;SDS011;66902;41.720;44.796;2023-12-29T11:02:30;6.60;;;2.30;;
77733;SDS011;66902;41.720;44.796;2023-12-29T11:05:05;10.00;;;2.90;;
77733;SDS011;66902;41.720;44.796;2023-12-29T11:07:44;6.20;;;2.40;;
77733;SDS011;66902;41.720;44.796;2023-12-29T11:10:20;5.10;;;2.40;;
77733;SDS011;66902;41.720;44.796;2023-12-29T11:12:54;4.50;;;2.60;;
77733;SDS011;66902;41.720;44.796;2023-12-29T11:15:29;6.30;;;2.70;;
77733;SDS011;66902;41.720;44.796;2023-12-29T11:18:03;4.10;;;2.90;;
77733;SDS011;66902;41.720;44.796;2023-12-29T11:20:39;4.10;;;2.20;;
77733;SDS011;66902;41.720;44.796;2023-12-29T11:23:23;6.40;;;2.60;;
77733;SDS011;66902;41.720;44.796;2023-12-29T11:25:58;4.10;;;2.80;;
77733;SDS011;66902;41.720;44.796;2023-12-29T11:28:36;5.10;;;3.30;;
77733;SDS011;66902;41.720;44.796;2023-12-29T11:31:14;4.50;;;2.70;;
77733;SDS011;66902;41.720;44.796;2023-12-29T11:33:56;5.00;;;2.90;;
77733;SDS011;66902;41.720;44.796;2023-12-29T11:36:33;4.20;;;2.70;;
77733;SDS011;66902;41.720;44.796;2023-12-29T11:39:14;8.20;;;2.50;;
77733;SDS011;66902;41.720;44.796;2023-12-29T11:41:56;6.90;;;3.10;;
77733;SDS011;66902;41.720;44.796;2023-12-29T11:44:33;11.40;;;3.30;;
77733;SDS011;66902;41.720;44.796;2023-12-29T11:47:08;6.80;;;3.40;;
77733;SDS011;66902;41.720;44.796;2023-12-29T11:50:08;4.60;;;2.90;;
77733;SDS011;66902;41.720;44.796;2023-12-29T11:52:42;9.90;;;4.30;;
77733;SDS011;66902;41.720;44.796;2023-12-29T11:55:17;5.90;;;3.50;;
77733;SDS011;66902;41.720;44.796;2023-12-29T11:57:51;8.40;;;4.00;;
77733;SDS011;66902;41.720;44.796;2023-12-29T12:00:42;9.40;;;4.00;;
77733;SDS011;66902;41.720;44.796;2023-12-29T12:03:23;7.10;;;3.90;;
77733;SDS011;66902;41.720;44.796;2023-12-29T12:05:58;10.80;;;4.20;;
77733;SDS011;66902;41.720;44.796;2023-12-29T12:08:36;7.60;;;5.00;;
77733;SDS011;66902;41.720;44.796;2023-12-29T12:17:32;9.60;;;6.80;;
77733;SDS011;66902;41.720;44.796;2023-12-29T12:20:08;10.10;;;6.00;;
77733;SDS011;66902;41.720;44.796;2023-12-29T12:22:51;10.10;;;5.90;;
77733;SDS011;66902;41.720;44.796;2023-12-29T12:25:31;8.10;;;5.10;;
77733;SDS011;66902;41.720;44.796;2023-12-29T12:28:08;7.30;;;5.00;;
77733;SDS011;66902;41.720;44.796;2023-12-29T12:30:43;8.20;;;5.00;;
77733;SDS011;66902;41.720;44.796;2023-12-29T12:33:17;8.80;;;5.20;;
77733;SDS011;66902;41.720;44.796;2023-12-29T12:35:59;7.50;;;4.80;;
77733;SDS011;66902;41.720;44.796;2023-12-29T12:38:37;7.20;;;5.40;;
77733;SDS011;66902;41.720;44.796;2023-12-29T12:41:11;6.70;;;4.20;;
77733;SDS011;66902;41.720;44.796;2023-12-29T12:43:49;8.40;;;6.10;;
77733;SDS011;66902;41.720;44.796;2023-12-29T12:46:25;7.50;;;5.50;;
77733;SDS011;66902;41.720;44.796;2023-12-29T12:48:59;6.90;;;5.00;;
77733;SDS011;66902;41.720;44.796;2023-12-29T12:51:35;3.40;;;3.10;;
77733;SDS011;66902;41.720;44.796;2023-12-29T12:54:09;3.80;;;2.70;;
77733;SDS011;66902;41.720;44.796;2023-12-29T12:56:45;4.60;;;2.70;;
77733;SDS011;66902;41.720;44.796;2023-12-29T12:59:22;7.30;;;5.30;;
77733;SDS011;66902;41.720;44.796;2023-12-29T13:01:57;11.20;;;4.80;;
77733;SDS011;66902;41.720;44.796;2023-12-29T13:04:32;6.30;;;3.20;;
77733;SDS011;66902;41.720;44.796;2023-12-29T13:07:06;4.30;;;2.90;;
77733;SDS011;66902;41.720;44.796;2023-12-29T13:09:40;6.90;;;3.60;;
77733;SDS011;66902;41.720;44.796;2023-12-29T13:12:14;4.80;;;3.10;;
77733;SDS011;66902;41.720;44.796;2023-12-29T13:14:48;3.80;;;2.50;;
77733;SDS011;66902;41.720;44.796;2023-12-29T13:17:23;8.10;;;5.20;;
77733;SDS011;66902;41.720;44.796;2023-12-29T13:19:57;4.00;;;2.80;;
77733;SDS011;66902;41.720;44.796;2023-12-29T13:22:34;5.60;;;3.40;;
77733;SDS011;66902;41.720;44.796;2023-12-29T13:25:19;5.20;;;3.40;;
77733;SDS011;66902;41.720;44.796;2023-12-29T13:27:56;5.90;;;4.00;;
77733;SDS011;66902;41.720;44.796;2023-12-29T13:30:31;4.90;;;3.30;;
77733;SDS011;66902;41.720;44.796;2023-12-29T13:33:07;6.20;;;5.00;;
77733;SDS011;66902;41.720;44.796;2023-12-29T13:35:46;10.50;;;4.60;;
77733;SDS011;66902;41.720;44.796;2023-12-29T13:38:36;8.60;;;4.80;;
77733;SDS011;66902;41.720;44.796;2023-12-29T13:41:14;4.70;;;3.70;;
77733;SDS011;66902;41.720;44.796;2023-12-29T13:43:49;10.70;;;5.40;;
77733;SDS011;66902;41.720;44.796;2023-12-29T13:46:23;9.00;;;7.10;;
77733;SDS011;66902;41.720;44.796;2023-12-29T13:48:58;12.70;;;7.80;;
77733;SDS011;66902;41.720;44.796;2023-12-29T13:51:32;16.10;;;11.30;;
77733;SDS011;66902;41.720;44.796;2023-12-29T13:54:06;16.50;;;11.50;;
77733;SDS011;66902;41.720;44.796;2023-12-29T13:56:40;25.10;;;15.10;;
77733;SDS011;66902;41.720;44.796;2023-12-29T13:59:30;29.20;;;17.30;;
77733;SDS011;66902;41.720;44.796;2023-12-29T14:02:18;29.30;;;18.30;;
77733;SDS011;66902;41.720;44.796;2023-12-29T14:07:54;27.30;;;17.50;;
77733;SDS011;66902;41.720;44.796;2023-12-29T14:10:30;31.00;;;21.50;;
77733;SDS011;66902;41.720;44.796;2023-12-29T14:13:06;27.30;;;23.00;;
77733;SDS011;66902;41.720;44.796;2023-12-29T14:15:42;33.20;;;22.90;;
77733;SDS011;66902;41.720;44.796;2023-12-29T14:21:26;23.50;;;20.40;;
77733;SDS011;66902;41.720;44.796;2023-12-29T14:24:02;29.10;;;23.20;;
77733;SDS011;66902;41.720;44.796;2023-12-29T14:26:39;31.20;;;25.20;;
77733;SDS011;66902;41.720;44.796;2023-12-29T14:29:15;37.70;;;22.10;;
77733;SDS011;66902;41.720;44.796;2023-12-29T14:31:49;31.70;;;21.40;;
77733;SDS011;66902;41.720;44.796;2023-12-29T14:34:25;32.70;;;20.20;;
77733;SDS011;66902;41.720;44.796;2023-12-29T14:37:00;33.50;;;19.50;;
77733;SDS011;66902;41.720;44.796;2023-12-29T14:39:34;32.50;;;18.60;;
77733;SDS011;66902;41.720;44.796;2023-12-29T14:42:08;33.10;;;19.10;;
77733;SDS011;66902;41.720;44.796;2023-12-29T14:44:42;17.80;;;14.50;;
77733;SDS011;66902;41.720;44.796;2023-12-29T14:47:18;20.90;;;13.10;;
77733;SDS011;66902;41.720;44.796;2023-12-29T14:49:52;20.90;;;13.60;;
77733;SDS011;66902;41.720;44.796;2023-12-29T14:52:26;23.10;;;14.20;;
77733;SDS011;66902;41.720;44.796;2023-12-29T14:55:01;24.00;;;14.70;;
77733;SDS011;66902;41.720;44.796;2023-12-29T14:57:35;22.90;;;13.90;;
77733;SDS011;66902;41.720;44.796;2023-12-29T15:00:09;16.20;;;13.00;;
77733;SDS011;66902;41.720;44.796;2023-12-29T15:02:44;22.50;;;16.10;;
77733;SDS011;66902;41.720;44.796;2023-12-29T15:05:18;23.00;;;14.80;;
77733;SDS011;66902;41.720;44.796;2023-12-29T15:07:52;14.00;;;11.50;;
77733;SDS011;66902;41.720;44.796;2023-12-29T15:10:26;26.40;;;13.40;;
77733;SDS011;66902;41.720;44.796;2023-12-29T15:12:59;28.10;;;12.60;;
77733;SDS011;66902;41.720;44.796;2023-12-29T15:15:33;28.80;;;16.70;;
77733;SDS011;66902;41.720;44.796;2023-12-29T15:18:07;24.80;;;15.40;;
77733;SDS011;66902;41.720;44.796;2023-12-29T15:20:41;31.20;;;18.60;;
77733;SDS011;66902;41.720;44.796;2023-12-29T15:23:14;28.20;;;17.10;;
77733;SDS011;66902;41.720;44.796;2023-12-29T15:25:48;32.60;;;17.60;;
77733;SDS011;66902;41.720;44.796;2023-12-29T15:28:22;36.90;;;19.30;;
77733;SDS011;66902;41.720;44.796;2023-12-29T15:30:56;30.60;;;19.20;;
77733;SDS011;66902;41.720;44.796;2023-12-29T15:33:32;40.60;;;20.50;;
77733;SDS011;66902;41.720;44.796;2023-12-29T15:36:07;34.80;;;18.70;;
77733;SDS011;66902;41.720;44.796;2023-12-29T15:39:01;29.80;;;17.60;;
77733;SDS011;66902;41.720;44.796;2023-12-29T15:41:36;29.60;;;17.50;;
77733;SDS011;66902;41.720;44.796;2023-12-29T15:44:14;36.70;;;17.60;;
77733;SDS011;66902;41.720;44.796;2023-12-29T15:46:49;23.70;;;16.50;;